createdAt,value
2019-02-25T00:01:23.882Z,35.50
2019-02-25T00:03:57.413Z,36.10
2019-02-25T00:06:31.219Z,35.50
2019-02-25T00:09:04.944Z,36.00
2019-02-25T00:11:38.714Z,36.30
2019-02-25T00:14:12.515Z,35.80
2019-02-25T00:16:46.835Z,36.00
2019-02-25T00:19:20.628Z,36.00
2019-02-25T00:21:54.166Z,36.50
2019-02-25T00:24:28.556Z,37.10
2019-02-25T00:27:02.271Z,37.00
2019-02-25T00:29:35.821Z,37.70
2019-02-25T00:32:10.157Z,38.10
2019-02-25T00:34:43.750Z,38.10
2019-02-25T00:37:17.382Z,38.40
2019-02-25T00:39:51.112Z,38.50
2019-02-25T00:42:24.703Z,37.90
2019-02-25T00:44:58.294Z,37.90
2019-02-25T00:47:32.686Z,38.90
2019-02-25T00:50:07.229Z,38.90
2019-02-25T00:52:40.945Z,39.10
2019-02-25T00:55:14.555Z,39.50
2019-02-25T00:57:48.091Z,39.60
2019-02-25T01:00:21.720Z,39.00
2019-02-25T01:02:56.242Z,39.30
2019-02-25T01:05:29.995Z,39.20
2019-02-25T01:08:03.544Z,39.80
2019-02-25T01:10:37.154Z,40.40
2019-02-25T01:13:11.658Z,41.40
2019-02-25T01:15:45.353Z,41.40
2019-02-25T01:18:18.897Z,41.40
2019-02-25T01:20:52.462Z,41.80
2019-02-25T01:23:26.017Z,41.90
2019-02-25T01:25:59.594Z,41.80
2019-02-25T01:28:33.912Z,41.80
2019-02-25T01:31:08.266Z,42.00
2019-02-25T01:33:41.921Z,42.00
2019-02-25T01:36:16.243Z,43.00
2019-02-25T01:38:49.928Z,42.90
2019-02-25T01:41:23.510Z,43.00
2019-02-25T01:43:57.167Z,42.40
2019-02-25T01:46:30.859Z,41.80
2019-02-25T01:49:05.284Z,43.10
2019-02-25T01:51:38.981Z,43.10
2019-02-25T01:54:12.732Z,43.60
2019-02-25T01:56:46.283Z,44.50
2019-02-25T01:59:19.904Z,44.30
2019-02-25T02:01:53.613Z,44.00
2019-02-25T02:04:27.247Z,43.70
2019-02-25T02:07:01.007Z,43.80
2019-02-25T02:09:34.523Z,43.70
2019-02-25T02:12:08.388Z,44.50
2019-02-25T02:14:42.099Z,47.90
2019-02-25T02:17:15.908Z,44.00
2019-02-25T02:19:49.506Z,43.90
2019-02-25T02:22:23.302Z,44.10
2019-02-25T02:24:57.651Z,45.90
2019-02-25T02:27:31.346Z,45.90
2019-02-25T02:30:05.041Z,46.10
2019-02-25T02:32:38.594Z,46.10
2019-02-25T02:35:12.229Z,45.60
2019-02-25T02:37:46.062Z,45.20
2019-02-25T02:40:19.789Z,44.90
2019-02-25T02:42:57.596Z,45.20
2019-02-25T02:45:37.263Z,46.20
2019-02-25T02:48:12.673Z,45.80
2019-02-25T02:50:46.210Z,47.40
2019-02-25T02:53:19.883Z,48.90
2019-02-25T02:55:53.633Z,50.60
2019-02-25T02:58:28.012Z,54.20
2019-02-25T03:01:02.428Z,54.70
2019-02-25T03:03:36.316Z,54.70
2019-02-25T03:06:09.930Z,54.80
2019-02-25T03:08:44.297Z,55.10
2019-02-25T03:11:18.104Z,55.10
2019-02-25T03:13:51.807Z,54.50
2019-02-25T03:16:26.141Z,53.50
2019-02-25T03:19:00.767Z,53.40
2019-02-25T03:21:34.426Z,54.40
2019-02-25T03:24:08.177Z,55.00
2019-02-25T03:26:41.937Z,55.40
2019-02-25T03:29:15.485Z,56.30
2019-02-25T03:31:49.777Z,57.80
2019-02-25T03:34:23.554Z,57.80
2019-02-25T03:36:58.025Z,58.80
2019-02-25T03:39:31.740Z,58.80
2019-02-25T03:42:05.257Z,59.00
2019-02-25T03:44:38.826Z,59.10
2019-02-25T03:47:13.324Z,59.20
2019-02-25T03:49:46.999Z,59.10
2019-02-25T03:52:20.742Z,58.90
2019-02-25T03:54:54.319Z,58.70
2019-02-25T03:57:28.575Z,57.00
2019-02-25T04:00:02.151Z,56.90
2019-02-25T04:02:35.714Z,56.50
2019-02-25T04:05:09.432Z,57.20
2019-02-25T04:07:43.856Z,55.50
2019-02-25T04:10:17.575Z,54.60
2019-02-25T04:12:51.127Z,56.00
2019-02-25T04:15:26.225Z,55.60
2019-02-25T04:17:59.871Z,54.50
2019-02-25T04:20:33.447Z,53.90
2019-02-25T04:23:07.775Z,54.90
2019-02-25T04:25:41.356Z,54.80
2019-02-25T04:28:15.131Z,54.80
2019-02-25T04:30:48.783Z,54.60
2019-02-25T04:33:22.564Z,53.90
2019-02-25T04:35:56.106Z,53.70
2019-02-25T04:38:29.703Z,54.00
2019-02-25T04:41:03.522Z,55.30
2019-02-25T04:43:37.076Z,54.20
2019-02-25T04:46:10.683Z,54.50
2019-02-25T04:48:44.265Z,55.10
2019-02-25T04:51:17.935Z,54.60
2019-02-25T04:53:51.753Z,54.70
2019-02-25T04:56:25.627Z,55.70
2019-02-25T04:58:59.035Z,55.10
2019-02-25T05:01:32.817Z,54.50
2019-02-25T05:04:07.150Z,55.20
2019-02-25T05:06:40.872Z,55.20
2019-02-25T05:09:14.527Z,55.40
2019-02-25T05:11:48.372Z,55.60
2019-02-25T05:14:21.962Z,57.90
2019-02-25T05:16:56.481Z,60.80
2019-02-25T05:19:30.792Z,62.20
2019-02-25T05:22:04.351Z,62.10
2019-02-25T05:24:37.867Z,64.00
2019-02-25T05:27:11.566Z,64.60
2019-02-25T05:29:45.213Z,64.90
2019-02-25T05:32:18.878Z,64.80
2019-02-25T05:34:52.589Z,66.00
2019-02-25T05:37:26.290Z,68.90
2019-02-25T05:40:00.056Z,68.50
2019-02-25T05:42:33.789Z,68.10
2019-02-25T05:45:07.522Z,65.30
2019-02-25T05:47:41.250Z,64.80
2019-02-25T05:50:16.438Z,64.80
2019-02-25T05:52:49.973Z,64.70
2019-02-25T05:55:23.586Z,64.30
2019-02-25T05:57:57.371Z,64.10
2019-02-25T06:00:30.951Z,63.80
2019-02-25T06:03:04.799Z,64.60
2019-02-25T06:05:38.414Z,65.60
2019-02-25T06:08:12.115Z,68.50
2019-02-25T06:10:45.832Z,68.10
2019-02-25T06:13:19.790Z,68.60
2019-02-25T06:15:53.527Z,70.90
2019-02-25T06:18:27.349Z,71.40
2019-02-25T06:21:01.116Z,71.80
2019-02-25T06:23:34.865Z,71.10
2019-02-25T06:26:08.559Z,68.70
2019-02-25T06:28:42.535Z,68.80
2019-02-25T06:31:16.151Z,69.10
2019-02-25T06:33:49.933Z,68.70
2019-02-25T06:36:23.555Z,70.10
2019-02-25T06:38:58.132Z,70.80
2019-02-25T06:41:31.967Z,76.10
2019-02-25T06:44:05.655Z,78.20
2019-02-25T06:46:39.176Z,80.60
2019-02-25T06:49:12.705Z,80.90
2019-02-25T06:51:46.400Z,81.50
2019-02-25T06:54:19.955Z,83.00
2019-02-25T06:56:53.742Z,82.90
2019-02-25T06:59:27.506Z,84.20
2019-02-25T07:02:01.279Z,90.10
2019-02-25T07:04:37.503Z,83.40
2019-02-25T07:07:12.739Z,81.00
2019-02-25T07:09:51.176Z,81.00
2019-02-25T07:12:24.740Z,80.10
2019-02-25T07:14:59.112Z,78.60
2019-02-25T07:17:32.836Z,76.10
2019-02-25T07:20:06.491Z,76.80
2019-02-25T07:22:40.136Z,76.80
2019-02-25T07:25:17.806Z,80.70
2019-02-25T07:27:54.286Z,80.40
2019-02-25T07:30:31.107Z,80.40
2019-02-25T07:33:07.352Z,80.40
2019-02-25T07:35:55.969Z,79.50
2019-02-25T07:38:39.150Z,79.20
2019-02-25T07:44:09.418Z,76.20
2019-02-25T07:46:46.722Z,75.80
2019-02-25T07:49:21.089Z,76.20
2019-02-25T07:52:00.668Z,75.80
2019-02-25T07:54:35.067Z,75.10
2019-02-25T07:57:11.530Z,72.60
2019-02-25T08:00:00.100Z,73.10
2019-02-25T08:02:35.263Z,72.50
2019-02-25T08:05:11.516Z,72.60
2019-02-25T08:08:01.596Z,59.50
2019-02-25T08:10:50.323Z,59.50
2019-02-25T08:13:24.164Z,52.30
2019-02-25T08:16:01.140Z,43.20
2019-02-25T08:18:35.677Z,43.10
2019-02-25T08:21:13.008Z,38.70
2019-02-25T08:23:47.228Z,38.70
2019-02-25T08:26:31.584Z,37.10
2019-02-25T08:29:05.298Z,36.10
2019-02-25T08:31:45.744Z,37.00
2019-02-25T08:34:27.057Z,36.60
2019-02-25T08:37:08.631Z,34.40
2019-02-25T08:39:43.751Z,34.30
2019-02-25T08:42:23.041Z,32.20
2019-02-25T08:45:00.909Z,31.20
2019-02-25T08:47:35.384Z,30.60
2019-02-25T08:50:08.964Z,30.60
2019-02-25T08:52:43.435Z,28.90
2019-02-25T08:55:17.207Z,28.80
2019-02-25T08:57:50.792Z,28.10
2019-02-25T09:00:24.488Z,27.60
2019-02-25T09:02:58.177Z,27.20
2019-02-25T09:05:31.952Z,28.20
2019-02-25T09:08:06.467Z,27.50
2019-02-25T09:10:40.870Z,27.10
2019-02-25T09:13:15.256Z,26.30
2019-02-25T09:15:49.805Z,25.60
2019-02-25T09:18:24.125Z,24.70
2019-02-25T09:20:57.912Z,24.70
2019-02-25T09:23:31.679Z,24.20
2019-02-25T09:26:05.385Z,24.30
2019-02-25T09:28:39.127Z,23.90
2019-02-25T09:31:12.756Z,23.70
2019-02-25T09:33:46.525Z,22.90
2019-02-25T09:36:20.274Z,22.70
2019-02-25T09:38:54.060Z,22.20
2019-02-25T09:41:30.224Z,21.50
2019-02-25T09:44:02.191Z,21.50
2019-02-25T09:46:36.809Z,21.10
2019-02-25T09:49:11.139Z,21.20
2019-02-25T09:51:44.777Z,21.20
2019-02-25T09:54:19.268Z,21.30
2019-02-25T09:56:53.864Z,20.90
2019-02-25T09:59:27.582Z,20.90
2019-02-25T10:02:01.243Z,21.00
2019-02-25T10:04:35.690Z,20.60
2019-02-25T10:07:09.385Z,20.50
2019-02-25T10:09:43.885Z,20.00
2019-02-25T10:12:17.653Z,20.00
2019-02-25T10:14:52.494Z,19.50
2019-02-25T10:17:26.743Z,19.50
2019-02-25T10:20:00.491Z,19.70
2019-02-25T10:22:34.273Z,19.10
2019-02-25T10:25:08.725Z,18.80
2019-02-25T10:27:43.085Z,18.10
2019-02-25T10:30:17.451Z,18.10
2019-02-25T10:32:51.229Z,18.00
2019-02-25T10:35:27.239Z,17.60
2019-02-25T10:38:01.069Z,17.20
2019-02-25T10:40:33.211Z,17.20
2019-02-25T10:43:07.661Z,17.40
2019-02-25T10:45:43.233Z,17.50
2019-02-25T10:48:15.589Z,17.30
2019-02-25T10:50:55.726Z,17.30
2019-02-25T10:53:23.151Z,17.30
2019-02-25T10:55:58.603Z,17.10
2019-02-25T10:58:33.693Z,16.40
2019-02-25T11:01:08.547Z,17.00
2019-02-25T11:03:40.237Z,16.60
2019-02-25T11:06:13.954Z,16.80
2019-02-25T11:08:47.671Z,16.60
2019-02-25T11:11:23.219Z,15.70
2019-02-25T11:13:58.769Z,16.10
2019-02-25T11:16:30.703Z,16.10
2019-02-25T11:19:05.136Z,15.70
2019-02-25T11:21:39.878Z,15.60
2019-02-25T11:24:14.178Z,15.70
2019-02-25T11:26:46.474Z,15.80
2019-02-25T11:29:20.305Z,16.10
2019-02-25T11:31:55.593Z,16.10
2019-02-25T11:34:29.440Z,16.30
2019-02-25T11:37:01.482Z,16.10
2019-02-25T11:39:37.221Z,16.10
2019-02-25T11:42:10.797Z,16.10
2019-02-25T11:44:43.404Z,15.70
2019-02-25T11:47:17.180Z,15.90
2019-02-25T11:49:51.024Z,15.80
2019-02-25T11:52:24.645Z,15.90
2019-02-25T11:54:58.460Z,15.70
2019-02-25T11:57:32.022Z,15.90
2019-02-25T12:00:11.766Z,16.20
2019-02-25T12:02:45.446Z,16.30
2019-02-25T12:05:19.962Z,17.00
2019-02-25T12:07:54.288Z,18.20
2019-02-25T12:10:28.096Z,18.10
2019-02-25T12:13:01.642Z,20.40
2019-02-25T12:15:35.258Z,22.30
2019-02-25T12:18:08.954Z,23.10
2019-02-25T12:20:42.580Z,24.20
2019-02-25T12:23:17.103Z,26.10
2019-02-25T12:25:51.553Z,26.70
2019-02-25T12:28:25.420Z,26.70
2019-02-25T12:30:59.978Z,28.20
2019-02-25T12:33:33.729Z,28.10
2019-02-25T12:36:07.519Z,28.10
2019-02-25T12:38:41.240Z,28.70
2019-02-25T12:41:15.036Z,29.30
2019-02-25T12:43:48.841Z,29.30
2019-02-25T12:46:22.408Z,30.10
2019-02-25T12:48:56.799Z,29.70
2019-02-25T12:51:31.361Z,30.00
2019-02-25T12:54:05.728Z,30.20
2019-02-25T12:56:39.485Z,30.10
2019-02-25T12:59:13.237Z,30.90
2019-02-25T13:01:46.938Z,29.80
2019-02-25T13:04:20.691Z,30.00
2019-02-25T13:06:54.262Z,29.60
2019-02-25T13:09:28.152Z,29.90
2019-02-25T13:12:02.722Z,30.80
2019-02-25T13:14:37.404Z,31.00
2019-02-25T13:17:11.191Z,31.00
2019-02-25T13:19:44.808Z,31.00
2019-02-25T13:22:18.633Z,31.10
2019-02-25T13:24:52.320Z,31.10
2019-02-25T13:27:26.014Z,33.10
2019-02-25T13:29:59.813Z,33.70
2019-02-25T13:32:33.949Z,33.20
2019-02-25T13:35:08.338Z,33.10
2019-02-25T13:37:41.987Z,33.10
2019-02-25T13:40:15.594Z,34.40
2019-02-25T13:42:49.196Z,34.20
2019-02-25T13:45:22.868Z,34.30
2019-02-25T13:47:56.389Z,34.20
2019-02-25T13:50:30.185Z,34.60
2019-02-25T13:53:03.784Z,34.20
2019-02-25T13:55:37.545Z,35.20
2019-02-25T13:58:11.300Z,35.60
2019-02-25T14:00:45.082Z,35.60
2019-02-25T14:03:18.918Z,35.90
2019-02-25T14:05:52.603Z,35.70
2019-02-25T14:08:26.273Z,36.30
2019-02-25T14:10:59.931Z,36.40
2019-02-25T14:13:33.624Z,36.50
2019-02-25T14:16:07.238Z,36.50
2019-02-25T14:18:42.040Z,37.00
2019-02-25T14:21:23.059Z,37.00
2019-02-25T14:23:57.711Z,36.90
2019-02-25T14:26:31.014Z,37.20
2019-02-25T14:29:06.806Z,37.20
2019-02-25T14:31:38.306Z,37.50
2019-02-25T14:34:12.060Z,37.30
2019-02-25T14:36:46.354Z,37.80
2019-02-25T14:39:24.816Z,37.90
2019-02-25T14:41:54.849Z,37.80
2019-02-25T14:44:32.402Z,37.80
2019-02-25T14:47:03.428Z,37.70
2019-02-25T14:49:37.640Z,37.70
2019-02-25T14:52:08.873Z,37.70
2019-02-25T14:54:42.453Z,37.70
2019-02-25T14:57:16.297Z,37.90
2019-02-25T14:59:49.936Z,37.90
2019-02-25T15:02:23.531Z,38.20
2019-02-25T15:04:57.135Z,37.80
2019-02-25T15:07:32.431Z,37.80
2019-02-25T15:10:06.359Z,37.80
2019-02-25T15:12:39.953Z,37.40
2019-02-25T15:15:14.761Z,37.10
2019-02-25T15:17:50.331Z,37.10
2019-02-25T15:20:23.411Z,37.00
2019-02-25T15:22:55.892Z,36.60
2019-02-25T15:25:33.119Z,37.30
2019-02-25T15:28:07.104Z,36.70
2019-02-25T15:30:37.962Z,36.60
2019-02-25T15:33:12.359Z,36.90
2019-02-25T15:35:45.977Z,36.90
2019-02-25T15:38:19.714Z,37.60
2019-02-25T15:40:55.921Z,38.00
2019-02-25T15:43:29.927Z,37.70
2019-02-25T15:46:01.441Z,37.60
2019-02-25T15:48:36.940Z,37.40
2019-02-25T15:51:08.928Z,37.50
2019-02-25T15:53:46.232Z,37.50
2019-02-25T15:56:17.062Z,38.20
2019-02-25T15:58:50.730Z,38.10
2019-02-25T16:01:24.388Z,38.00
2019-02-25T16:04:02.207Z,38.30
2019-02-25T16:06:33.166Z,38.40
2019-02-25T16:09:05.609Z,38.60
2019-02-25T16:11:44.020Z,38.80
2019-02-25T16:14:18.713Z,38.80
2019-02-25T16:16:51.594Z,38.90
2019-02-25T16:19:34.891Z,38.90
2019-02-25T16:22:00.621Z,39.00
2019-02-25T16:24:32.628Z,39.20
2019-02-25T16:27:07.121Z,39.90
2019-02-25T16:29:40.880Z,39.80
2019-02-25T16:32:15.339Z,40.30
2019-02-25T16:34:48.000Z,40.80
2019-02-25T16:37:22.149Z,41.40
2019-02-25T16:39:55.889Z,42.20
2019-02-25T16:42:30.251Z,43.00
2019-02-25T16:45:04.106Z,43.30
2019-02-25T16:47:37.701Z,45.00
2019-02-25T16:50:11.845Z,44.50
2019-02-25T16:52:45.581Z,45.50
2019-02-25T16:55:22.662Z,45.80
2019-02-25T16:57:54.673Z,46.00
2019-02-25T17:00:30.173Z,46.70
2019-02-25T17:03:06.560Z,47.00
2019-02-25T17:05:40.293Z,47.40
2019-02-25T17:08:12.585Z,48.30
2019-02-25T17:10:45.803Z,49.20
2019-02-25T17:13:19.367Z,48.70
2019-02-25T17:15:52.926Z,49.40
2019-02-25T17:18:26.727Z,50.00
2019-02-25T17:21:00.534Z,50.20
2019-02-25T17:23:34.866Z,50.40
2019-02-25T17:26:08.240Z,50.70
2019-02-25T17:28:41.375Z,51.20
2019-02-25T17:31:16.345Z,51.90
2019-02-25T17:33:51.415Z,51.80
2019-02-25T17:36:24.019Z,52.40
2019-02-25T17:38:57.720Z,52.80
2019-02-25T17:41:33.126Z,54.00
2019-02-25T17:44:05.911Z,55.60
2019-02-25T17:46:41.295Z,55.60
2019-02-25T17:49:14.533Z,56.00
2019-02-25T17:51:49.568Z,57.80
2019-02-25T17:54:23.921Z,57.70
2019-02-25T17:56:55.444Z,58.80
2019-02-25T17:59:29.481Z,60.60
2019-02-25T18:02:04.531Z,62.20
2019-02-25T18:04:36.590Z,62.80
2019-02-25T18:07:10.193Z,64.60
2019-02-25T18:09:44.460Z,67.70
2019-02-25T18:12:18.932Z,73.50
2019-02-25T18:14:53.551Z,77.70
2019-02-25T18:17:27.250Z,77.50
2019-02-25T18:20:00.962Z,81.10
2019-02-25T18:22:35.450Z,86.20
2019-02-25T18:25:09.659Z,86.00
2019-02-25T18:27:47.738Z,90.70
2019-02-25T18:30:18.734Z,90.70
2019-02-25T18:32:52.654Z,91.90
2019-02-25T18:35:25.934Z,93.60
2019-02-25T18:38:02.075Z,96.50
2019-02-25T18:40:35.584Z,96.50
2019-02-25T18:43:07.547Z,97.80
2019-02-25T18:45:42.760Z,98.50
2019-02-25T18:48:14.702Z,99.60
2019-02-25T18:50:50.186Z,99.90
2019-02-25T18:53:22.578Z,99.90
2019-02-25T18:55:56.752Z,99.90
2019-02-25T18:58:31.025Z,99.90
2019-02-25T19:01:04.510Z,99.90
2019-02-25T19:03:38.214Z,99.90
2019-02-25T19:06:11.825Z,99.90
2019-02-25T19:08:47.302Z,99.90
2019-02-25T19:11:20.990Z,99.90
2019-02-25T19:13:54.291Z,99.90
2019-02-25T19:16:28.146Z,99.90
2019-02-25T19:19:03.993Z,99.90
2019-02-25T19:21:35.607Z,99.90
2019-02-25T19:24:09.923Z,99.90
2019-02-25T19:26:44.569Z,99.90
2019-02-25T19:29:17.818Z,99.90
2019-02-25T19:31:50.267Z,99.90
2019-02-25T19:34:24.769Z,99.90
2019-02-25T19:37:02.222Z,99.90
2019-02-25T19:39:33.598Z,99.90
2019-02-25T19:42:07.476Z,99.90
2019-02-25T19:44:41.182Z,99.90
2019-02-25T19:47:16.877Z,99.90
2019-02-25T19:49:49.335Z,99.90
2019-02-25T19:52:23.123Z,99.90
2019-02-25T19:54:56.780Z,99.90
2019-02-25T19:57:30.852Z,99.90
2019-02-25T20:00:09.939Z,99.90
2019-02-25T20:02:44.278Z,99.90
2019-02-25T20:05:19.764Z,99.90
2019-02-25T20:07:54.603Z,99.90
2019-02-25T20:10:25.965Z,99.90
2019-02-25T20:12:59.659Z,99.90
2019-02-25T20:15:37.361Z,99.90
2019-02-25T20:18:09.302Z,99.90
2019-02-25T20:20:41.680Z,99.90
2019-02-25T20:23:14.395Z,99.90
2019-02-25T20:25:49.308Z,99.90
2019-02-25T20:28:22.345Z,99.90
2019-02-25T20:30:56.198Z,99.90
2019-02-25T20:33:32.435Z,99.90
2019-02-25T20:36:03.630Z,99.90
2019-02-25T20:38:39.301Z,99.90
2019-02-25T20:41:10.992Z,99.90
2019-02-25T20:43:47.232Z,99.90
2019-02-25T20:46:21.975Z,99.90
2019-02-25T20:48:53.187Z,99.90
2019-02-25T20:51:29.288Z,99.90
2019-02-25T20:54:00.884Z,99.90
2019-02-25T20:56:34.597Z,99.90
2019-02-25T20:59:09.867Z,99.90
2019-02-25T21:01:44.024Z,99.90
2019-02-25T21:04:17.885Z,99.90
2019-02-25T21:06:49.694Z,99.90
2019-02-25T21:09:23.436Z,99.90
2019-02-25T21:11:57.002Z,99.90
2019-02-25T21:14:31.765Z,99.90
2019-02-25T21:17:04.901Z,99.90
2019-02-25T21:19:40.029Z,99.90
2019-02-25T21:22:13.672Z,99.90
2019-02-25T21:24:49.487Z,99.90
2019-02-25T21:27:20.970Z,99.90
2019-02-25T21:29:55.136Z,99.90
2019-02-25T21:32:28.369Z,99.90
2019-02-25T21:35:04.392Z,99.90
2019-02-25T21:37:36.391Z,99.90
2019-02-25T21:40:13.599Z,99.90
2019-02-25T21:42:49.285Z,99.90
2019-02-25T21:45:22.413Z,99.90
2019-02-25T21:47:56.494Z,99.90
2019-02-25T21:50:33.075Z,99.90
2019-02-25T21:53:04.858Z,99.90
2019-02-25T21:55:36.416Z,99.90
2019-02-25T21:58:09.983Z,99.90
2019-02-25T22:00:43.759Z,99.90
2019-02-25T22:03:19.398Z,99.90
2019-02-25T22:05:53.254Z,99.90
2019-02-25T22:08:26.664Z,99.90
2019-02-25T22:11:11.733Z,99.90
2019-02-25T22:13:32.030Z,99.90
2019-02-25T22:16:07.908Z,99.90
2019-02-25T22:18:39.485Z,99.90
2019-02-25T22:21:14.950Z,99.90
2019-02-25T22:23:49.445Z,99.90
2019-02-25T22:26:24.112Z,99.90
2019-02-25T22:28:57.335Z,99.90
2019-02-25T22:31:29.374Z,99.90
2019-02-25T22:34:03.115Z,99.90
2019-02-25T22:36:39.410Z,99.90
2019-02-25T22:39:10.507Z,99.90
2019-02-25T22:41:45.003Z,99.90
2019-02-25T22:44:18.803Z,99.90
2019-02-25T22:46:52.584Z,99.90
2019-02-25T22:49:27.908Z,99.90
2019-02-25T22:52:01.155Z,99.90
2019-02-25T22:54:37.060Z,99.90
2019-02-25T22:57:07.016Z,99.90
2019-02-25T22:59:41.335Z,99.90
2019-02-25T23:02:15.013Z,99.90
2019-02-25T23:04:50.254Z,99.90
2019-02-25T23:07:24.624Z,99.90
2019-02-25T23:09:57.075Z,99.90
2019-02-25T23:12:31.101Z,99.90
2019-02-25T23:15:06.091Z,99.90
2019-02-25T23:17:39.900Z,99.90
2019-02-25T23:20:11.650Z,99.90
2019-02-25T23:22:45.288Z,99.90
2019-02-25T23:25:18.891Z,99.90
2019-02-25T23:27:55.633Z,99.90
2019-02-25T23:30:28.360Z,99.90
2019-02-25T23:33:01.956Z,99.90
2019-02-25T23:35:35.633Z,99.90
2019-02-25T23:38:09.297Z,99.90
2019-02-25T23:40:45.045Z,99.90
2019-02-25T23:43:17.168Z,99.90
2019-02-25T23:45:49.988Z,99.90
2019-02-25T23:48:26.725Z,99.90
2019-02-25T23:50:57.819Z,99.90
2019-02-25T23:53:32.756Z,99.90
2019-02-25T23:56:04.672Z,99.90
2019-02-25T23:58:40.432Z,99.90
